Startpagina
METAR-TAF:

METAR-TAF

Vliegvelden :

Damascus, Syrië

Luchthaven Damascus

breedte: 33-25N, lengte: 036-31E, hoogte: 608 m

Actueel weer

Dit bericht is 17 minuten geleden gemaakt, om 19:00 UTC
Wind 12 kt uit het zuidwesten
Temperatuur 19°C
Vochtigheid 64%
Druk 1016 hPa
Zicht 10 km of meer
geen wolken onder 1500 m en geen cumulonimbus

METAR: OSDI 211900Z 22012KT CAVOK 19/12 Q1016

Tijdstip: 22:17 (19:17 UTC)

Verwachting

Dit bericht is 1 uur en het 17 minuten geleden gemaakt, om 18:00 UTC
Verwachting geldig van 21 om 18 UTC tot 22 om 24 UTC
Wind 3 kt uit variabele richting
Zicht 10 km of meer
geen wolken onder 1500 m en geen cumulonimbus

TAF: OSDI 211800Z 2118/2224 VRB03KT CAVOK

Waarnemingen en weersverwachtingen van meer dan 4000 vliegvelden (METAR en TAF).

De beschikbare stations zijn de gele en rode punten op de kaart.

Ga met uw muis naar het station om de naam te zien.

Klik dan om waarnemingen en weersverwachtingen te zien.

kaart wijzigen: klik op de groene knoppen met een zwart kruis om in te zoomen, op de groene knop met een streepje om uit te zoomen of op de groene pijlen voor aangrenzende kaarten.


METAR-TAF: